createdAt,value
2022-12-27T00:00:03.173Z,499.00
2022-12-27T00:01:03.061Z,499.00
2022-12-27T00:02:03.033Z,502.00
2022-12-27T00:03:03.027Z,500.00
2022-12-27T00:04:02.903Z,500.00
2022-12-27T10:47:52.434Z,472.00
2022-12-27T10:49:19.530Z,481.00
2022-12-27T10:49:53.633Z,482.00
2022-12-27T10:50:53.449Z,480.00
2022-12-27T10:51:53.293Z,481.00
2022-12-27T10:52:57.518Z,482.00
2022-12-27T10:53:53.552Z,478.00
2022-12-27T10:54:53.652Z,476.00
2022-12-27T10:55:53.716Z,476.00
2022-12-27T10:56:53.687Z,483.00
2022-12-27T10:57:53.927Z,484.00
2022-12-27T10:58:58.820Z,481.00
2022-12-27T10:59:53.745Z,480.00
2022-12-27T11:00:53.848Z,489.00
2022-12-27T11:01:53.985Z,489.00
2022-12-27T11:02:53.891Z,487.00
2022-12-27T11:03:53.885Z,484.00
2022-12-27T11:04:54.029Z,484.00
2022-12-27T11:05:54.066Z,485.00
2022-12-27T11:06:53.960Z,482.00
2022-12-27T11:07:54.056Z,496.00
2022-12-27T11:08:53.978Z,473.00
2022-12-27T11:09:53.969Z,472.00
2022-12-27T11:10:54.059Z,476.00
2022-12-27T11:11:54.039Z,479.00
2022-12-27T11:12:54.049Z,481.00
2022-12-27T11:13:54.065Z,478.00
2022-12-27T11:14:54.060Z,474.00
2022-12-27T11:15:58.273Z,482.00
2022-12-27T11:16:54.102Z,483.00
2022-12-27T11:17:54.090Z,483.00
2022-12-27T11:18:54.144Z,489.00
2022-12-27T11:19:54.079Z,483.00
2022-12-27T11:20:54.280Z,481.00
2022-12-27T11:21:54.135Z,482.00
2022-12-27T11:22:54.192Z,480.00
2022-12-27T11:23:54.332Z,482.00
2022-12-27T11:24:54.195Z,482.00
2022-12-27T11:25:54.319Z,479.00
2022-12-27T11:26:54.589Z,485.00
2022-12-27T11:27:54.351Z,489.00
2022-12-27T11:28:54.304Z,488.00
2022-12-27T11:29:54.321Z,489.00
2022-12-27T11:30:54.361Z,488.00
2022-12-27T11:31:54.481Z,484.00
2022-12-27T11:32:54.344Z,483.00
2022-12-27T11:33:54.420Z,479.00
2022-12-27T11:34:54.411Z,481.00
2022-12-27T11:35:54.443Z,483.00
2022-12-27T11:36:54.506Z,482.00
2022-12-27T11:37:54.519Z,478.00
2022-12-27T11:38:54.534Z,478.00
2022-12-27T11:39:54.609Z,479.00
2022-12-27T11:40:54.603Z,479.00
2022-12-27T11:41:54.675Z,475.00
2022-12-27T11:42:54.762Z,478.00
2022-12-27T11:43:54.659Z,480.00
2022-12-27T11:44:54.704Z,483.00
2022-12-27T11:45:54.687Z,480.00
2022-12-27T11:46:59.011Z,482.00
2022-12-27T11:47:54.729Z,493.00
2022-12-27T11:48:56.389Z,483.00
2022-12-27T11:49:54.811Z,482.00
2022-12-27T11:50:54.925Z,483.00
2022-12-27T11:51:54.826Z,485.00
2022-12-27T11:52:54.891Z,491.00
2022-12-27T11:53:56.564Z,478.00
2022-12-27T11:54:54.806Z,489.00
2022-12-27T11:55:54.851Z,484.00
2022-12-27T11:56:54.914Z,484.00
2022-12-27T11:57:54.849Z,484.00
2022-12-27T11:58:55.006Z,474.00
2022-12-27T11:59:54.931Z,477.00
2022-12-27T12:00:57.004Z,480.00
2022-12-27T12:01:55.144Z,484.00
2022-12-27T12:02:55.197Z,482.00
2022-12-27T12:03:55.025Z,488.00
2022-12-27T12:04:55.128Z,479.00
2022-12-27T12:05:55.078Z,491.00
2022-12-27T12:06:55.120Z,490.00
2022-12-27T12:07:55.046Z,494.00
2022-12-27T12:08:55.111Z,492.00
2022-12-27T12:09:55.099Z,494.00
2022-12-27T12:10:55.156Z,492.00
2022-12-27T12:11:55.510Z,492.00
2022-12-27T12:12:55.095Z,488.00
2022-12-27T12:13:55.135Z,484.00
2022-12-27T12:14:55.156Z,487.00
2022-12-27T12:15:55.183Z,483.00
2022-12-27T12:16:55.523Z,490.00
2022-12-27T12:17:55.108Z,477.00
2022-12-27T12:18:55.233Z,489.00
2022-12-27T12:19:55.235Z,489.00
2022-12-27T12:20:55.279Z,491.00
2022-12-27T12:21:55.362Z,486.00
2022-12-27T12:22:55.392Z,508.00
2022-12-27T12:23:55.254Z,484.00
2022-12-27T12:24:55.231Z,482.00
2022-12-27T12:25:55.382Z,481.00
2022-12-27T12:26:56.096Z,481.00
2022-12-27T12:27:55.375Z,483.00
2022-12-27T12:28:58.754Z,483.00
2022-12-27T12:29:55.400Z,490.00
2022-12-27T12:30:55.397Z,487.00
2022-12-27T12:31:55.498Z,479.00
2022-12-27T12:32:55.395Z,488.00
2022-12-27T12:33:55.533Z,488.00
2022-12-27T12:34:55.446Z,488.00
2022-12-27T12:35:55.402Z,481.00
2022-12-27T12:36:55.410Z,478.00
2022-12-27T12:37:55.503Z,481.00
2022-12-27T12:38:55.478Z,482.00
2022-12-27T12:39:55.439Z,486.00
2022-12-27T12:40:55.422Z,486.00
2022-12-27T12:41:55.412Z,486.00
2022-12-27T12:42:55.464Z,483.00
2022-12-27T12:43:55.445Z,481.00
2022-12-27T12:44:55.585Z,479.00
2022-12-27T12:45:55.547Z,480.00
2022-12-27T12:46:55.674Z,480.00
2022-12-27T12:47:55.631Z,481.00
2022-12-27T12:48:55.503Z,478.00
2022-12-27T12:49:55.503Z,479.00
2022-12-27T12:50:55.564Z,477.00
2022-12-27T12:51:55.520Z,504.00
2022-12-27T12:52:55.542Z,479.00
2022-12-27T12:53:55.502Z,480.00
2022-12-27T12:54:55.474Z,483.00
2022-12-27T12:55:55.658Z,486.00
2022-12-27T12:56:55.563Z,484.00
2022-12-27T12:57:55.719Z,484.00
2022-12-27T12:58:55.650Z,484.00
2022-12-27T12:59:55.565Z,482.00
2022-12-27T13:00:55.674Z,485.00
2022-12-27T13:01:55.710Z,483.00
2022-12-27T13:02:55.685Z,479.00
2022-12-27T13:03:55.541Z,482.00
2022-12-27T13:04:55.533Z,474.00
2022-12-27T13:05:55.651Z,491.00
2022-12-27T13:06:55.597Z,487.00
2022-12-27T13:07:55.660Z,486.00
2022-12-27T13:08:55.622Z,485.00
2022-12-27T13:09:55.669Z,488.00
2022-12-27T13:10:55.701Z,488.00
2022-12-27T13:11:55.595Z,484.00
2022-12-27T13:12:55.680Z,484.00
2022-12-27T13:13:55.668Z,490.00
2022-12-27T13:14:55.595Z,481.00
2022-12-27T13:15:55.659Z,477.00
2022-12-27T13:16:55.696Z,480.00
2022-12-27T13:17:55.646Z,481.00
2022-12-27T13:18:55.721Z,480.00
2022-12-27T13:19:55.621Z,482.00
2022-12-27T13:20:55.595Z,484.00
2022-12-27T13:21:55.693Z,481.00
2022-12-27T13:22:55.628Z,484.00
2022-12-27T13:23:55.768Z,481.00
2022-12-27T13:24:55.602Z,478.00
2022-12-27T13:25:55.706Z,481.00
2022-12-27T13:26:55.707Z,481.00
2022-12-27T13:27:55.783Z,482.00
2022-12-27T13:28:55.788Z,486.00
2022-12-27T13:29:56.803Z,484.00
2022-12-27T13:30:55.788Z,482.00
2022-12-27T13:31:55.841Z,487.00
2022-12-27T13:32:55.972Z,477.00
2022-12-27T13:33:55.827Z,492.00
2022-12-27T13:34:55.932Z,488.00
2022-12-27T13:35:55.884Z,491.00
2022-12-27T13:36:55.918Z,491.00
2022-12-27T13:37:55.747Z,492.00
2022-12-27T13:38:55.755Z,492.00
2022-12-27T13:39:55.791Z,489.00
2022-12-27T13:40:55.719Z,490.00
2022-12-27T13:41:55.798Z,491.00
2022-12-27T13:42:55.751Z,490.00
2022-12-27T13:43:55.684Z,488.00
2022-12-27T13:44:55.709Z,488.00
2022-12-27T13:45:55.776Z,483.00
2022-12-27T13:46:55.769Z,482.00
2022-12-27T13:47:55.797Z,479.00
2022-12-27T13:48:55.755Z,477.00
2022-12-27T13:49:55.826Z,479.00
2022-12-27T13:50:55.825Z,481.00
2022-12-27T13:51:55.787Z,482.00
2022-12-27T13:52:59.767Z,482.00
2022-12-27T13:53:55.877Z,484.00
2022-12-27T13:54:55.851Z,486.00
2022-12-27T13:55:55.795Z,485.00
2022-12-27T13:56:56.007Z,484.00
2022-12-27T13:57:56.031Z,482.00
2022-12-27T13:58:59.532Z,482.00
2022-12-27T13:59:55.914Z,482.00
2022-12-27T14:00:56.003Z,481.00
2022-12-27T14:01:55.974Z,479.00
2022-12-27T14:02:56.054Z,481.00
2022-12-27T14:03:55.851Z,484.00
2022-12-27T14:04:59.546Z,479.00
2022-12-27T14:05:55.874Z,483.00
2022-12-27T14:06:55.792Z,485.00
2022-12-27T14:07:55.886Z,487.00
2022-12-27T14:08:55.870Z,484.00
2022-12-27T14:09:55.889Z,483.00
2022-12-27T14:11:00.723Z,486.00
2022-12-27T14:11:55.834Z,487.00
2022-12-27T14:12:55.923Z,487.00
2022-12-27T14:13:55.921Z,487.00
2022-12-27T14:14:55.901Z,487.00
2022-12-27T14:15:56.012Z,488.00
2022-12-27T14:16:59.449Z,489.00
2022-12-27T14:17:55.856Z,484.00
2022-12-27T14:18:55.949Z,484.00
2022-12-27T14:19:55.974Z,485.00
2022-12-27T14:20:55.893Z,483.00
2022-12-27T14:21:55.896Z,481.00
2022-12-27T14:22:55.832Z,480.00
2022-12-27T14:23:55.839Z,479.00
2022-12-27T14:24:55.892Z,479.00
2022-12-27T14:25:55.915Z,478.00
2022-12-27T14:26:55.861Z,478.00
2022-12-27T14:27:55.886Z,479.00
2022-12-27T14:28:59.768Z,478.00
2022-12-27T14:29:55.818Z,476.00
2022-12-27T14:30:55.878Z,477.00
2022-12-27T14:31:55.855Z,477.00
2022-12-27T14:32:55.787Z,479.00
2022-12-27T14:33:55.807Z,479.00
2022-12-27T14:34:59.326Z,478.00
2022-12-27T14:35:55.820Z,479.00
2022-12-27T14:36:55.786Z,477.00
2022-12-27T14:37:55.733Z,475.00
2022-12-27T14:38:55.762Z,474.00
2022-12-27T14:39:55.756Z,470.00
2022-12-27T14:40:55.758Z,474.00
2022-12-27T14:41:55.860Z,477.00
2022-12-27T14:42:55.720Z,475.00
2022-12-27T14:43:55.823Z,474.00
2022-12-27T14:44:55.636Z,475.00
2022-12-27T14:45:57.877Z,476.00
2022-12-27T14:46:55.610Z,476.00
2022-12-27T14:47:55.618Z,476.00
2022-12-27T14:48:55.543Z,476.00
2022-12-27T14:49:55.604Z,476.00
2022-12-27T14:50:55.620Z,476.00
2022-12-27T14:52:10.327Z,477.00
2022-12-27T14:52:55.570Z,479.00
2022-12-27T14:53:55.483Z,477.00
2022-12-27T14:54:55.574Z,476.00
2022-12-27T14:55:55.555Z,476.00
2022-12-27T14:56:55.488Z,474.00
2022-12-27T14:57:55.436Z,474.00
2022-12-27T14:58:55.552Z,474.00
2022-12-27T14:59:55.464Z,476.00
2022-12-27T15:00:55.377Z,474.00
2022-12-27T15:01:55.492Z,478.00
2022-12-27T15:02:55.609Z,480.00
2022-12-27T15:03:55.460Z,479.00
2022-12-27T15:04:55.435Z,477.00
2022-12-27T15:05:55.451Z,478.00
2022-12-27T15:06:55.380Z,476.00
2022-12-27T15:07:55.331Z,479.00
2022-12-27T15:08:55.373Z,481.00
2022-12-27T15:09:55.336Z,481.00
2022-12-27T15:10:55.340Z,482.00
2022-12-27T15:11:55.340Z,482.00
2022-12-27T15:12:55.374Z,481.00
2022-12-27T15:13:55.337Z,476.00
2022-12-27T15:14:55.294Z,472.00
2022-12-27T15:15:55.312Z,472.00
2022-12-27T15:16:55.323Z,470.00
2022-12-27T15:17:55.228Z,472.00
2022-12-27T15:18:55.251Z,471.00
2022-12-27T15:19:55.198Z,474.00
2022-12-27T15:20:55.165Z,476.00
2022-12-27T15:21:55.173Z,479.00
2022-12-27T15:22:55.130Z,480.00
2022-12-27T15:23:55.117Z,484.00
2022-12-27T15:24:55.111Z,485.00
2022-12-27T15:25:55.139Z,481.00
2022-12-27T15:26:55.046Z,482.00
2022-12-27T15:27:55.114Z,481.00
2022-12-27T15:28:55.029Z,481.00
2022-12-27T15:29:55.134Z,480.00
2022-12-27T15:30:55.271Z,481.00
2022-12-27T15:31:55.036Z,481.00
2022-12-27T15:32:55.068Z,478.00
2022-12-27T15:33:54.998Z,487.00
2022-12-27T15:34:54.998Z,489.00
2022-12-27T15:35:55.172Z,487.00
2022-12-27T15:36:54.948Z,484.00
2022-12-27T15:37:55.008Z,483.00
2022-12-27T15:38:55.281Z,486.00
2022-12-27T15:39:55.035Z,485.00
2022-12-27T15:40:54.974Z,487.00
2022-12-27T15:41:55.035Z,487.00
2022-12-27T15:42:55.092Z,491.00
2022-12-27T15:43:55.038Z,495.00
2022-12-27T15:44:54.996Z,495.00
2022-12-27T15:45:55.029Z,497.00
2022-12-27T15:46:55.070Z,494.00
2022-12-27T15:47:55.049Z,495.00
2022-12-27T15:48:55.036Z,493.00
2022-12-27T15:49:55.005Z,496.00
2022-12-27T15:50:55.023Z,496.00
2022-12-27T15:51:55.030Z,497.00
2022-12-27T15:52:55.066Z,494.00
2022-12-27T15:53:55.342Z,497.00
2022-12-27T15:54:55.062Z,497.00
2022-12-27T15:55:55.073Z,496.00
2022-12-27T15:56:55.117Z,496.00
2022-12-27T15:57:55.191Z,495.00
2022-12-27T15:58:55.060Z,493.00
2022-12-27T15:59:55.105Z,492.00
2022-12-27T16:00:55.175Z,492.00
2022-12-27T16:01:55.190Z,496.00
2022-12-27T16:02:55.297Z,498.00
2022-12-27T16:03:55.270Z,499.00
2022-12-27T16:04:55.141Z,496.00
2022-12-27T16:05:55.161Z,498.00
2022-12-27T16:06:59.012Z,497.00
2022-12-27T16:07:55.062Z,497.00
2022-12-27T16:08:55.158Z,495.00
2022-12-27T16:09:55.341Z,497.00
2022-12-27T16:10:55.132Z,498.00
2022-12-27T16:11:55.090Z,499.00
2022-12-27T16:12:55.232Z,496.00
2022-12-27T16:13:55.206Z,493.00
2022-12-27T16:14:55.172Z,490.00
2022-12-27T16:15:55.202Z,489.00
2022-12-27T16:16:55.254Z,485.00
2022-12-27T16:17:55.166Z,488.00
2022-12-27T16:18:55.307Z,488.00
2022-12-27T16:19:55.204Z,488.00
2022-12-27T16:20:55.173Z,490.00
2022-12-27T16:21:55.247Z,491.00
2022-12-27T16:22:55.167Z,494.00
2022-12-27T16:23:55.191Z,493.00
2022-12-27T16:24:55.153Z,490.00
2022-12-27T16:25:55.260Z,489.00
2022-12-27T16:26:55.237Z,490.00
2022-12-27T16:27:55.153Z,491.00
2022-12-27T16:28:55.161Z,492.00
2022-12-27T16:29:55.133Z,492.00
2022-12-27T16:30:55.290Z,492.00
2022-12-27T16:31:55.268Z,493.00
2022-12-27T16:32:55.245Z,493.00
2022-12-27T16:33:55.358Z,490.00
2022-12-27T16:34:55.474Z,490.00
2022-12-27T16:35:55.303Z,491.00
2022-12-27T16:36:55.204Z,491.00
2022-12-27T16:37:55.195Z,491.00
2022-12-27T16:38:55.160Z,491.00
2022-12-27T16:39:55.171Z,491.00
2022-12-27T16:40:55.265Z,493.00
2022-12-27T16:41:55.124Z,491.00
2022-12-27T16:42:55.243Z,491.00
2022-12-27T16:43:55.146Z,494.00
2022-12-27T16:44:55.210Z,492.00
2022-12-27T16:45:55.187Z,488.00
2022-12-27T16:46:55.254Z,490.00
2022-12-27T16:47:55.180Z,493.00
2022-12-27T16:48:55.151Z,494.00
2022-12-27T16:49:55.299Z,494.00
2022-12-27T16:50:55.196Z,492.00
2022-12-27T16:51:55.332Z,490.00
2022-12-27T16:52:55.137Z,490.00
2022-12-27T16:53:55.165Z,495.00
2022-12-27T16:54:55.246Z,496.00
2022-12-27T16:55:55.354Z,496.00
2022-12-27T16:56:55.227Z,497.00
2022-12-27T16:57:55.112Z,498.00
2022-12-27T16:58:55.185Z,498.00
2022-12-27T16:59:55.194Z,500.00
2022-12-27T17:00:55.229Z,501.00
2022-12-27T17:01:55.334Z,499.00
2022-12-27T17:02:55.135Z,497.00
2022-12-27T17:03:55.189Z,499.00
2022-12-27T17:04:55.469Z,501.00
2022-12-27T17:06:55.378Z,500.00
2022-12-27T17:07:55.242Z,496.00
2022-12-27T17:08:55.124Z,495.00
2022-12-27T17:09:55.115Z,495.00
2022-12-27T17:10:55.243Z,495.00
2022-12-27T17:11:55.249Z,494.00
2022-12-27T17:12:55.162Z,495.00
2022-12-27T17:13:55.318Z,493.00
2022-12-27T17:14:55.233Z,494.00
2022-12-27T17:15:55.145Z,494.00
2022-12-27T18:43:54.893Z,493.00
2022-12-27T18:44:54.894Z,490.00
2022-12-27T18:45:54.992Z,490.00
2022-12-27T18:46:54.913Z,490.00
2022-12-27T18:47:55.971Z,491.00
2022-12-27T18:48:54.859Z,493.00
2022-12-27T18:49:54.844Z,494.00
2022-12-27T18:50:54.867Z,494.00
2022-12-27T18:51:54.868Z,493.00
2022-12-27T18:52:55.260Z,492.00
2022-12-27T18:53:54.903Z,491.00
2022-12-27T18:54:54.966Z,491.00
2022-12-27T18:55:54.903Z,489.00
2022-12-27T18:56:54.930Z,489.00
2022-12-27T18:57:55.002Z,491.00
2022-12-27T18:58:54.816Z,491.00
2022-12-27T18:59:54.837Z,493.00
2022-12-27T19:00:54.918Z,494.00
2022-12-27T19:01:54.997Z,493.00
2022-12-27T19:02:55.012Z,490.00
2022-12-27T19:03:55.038Z,490.00
2022-12-27T19:04:54.863Z,489.00
2022-12-27T19:05:54.886Z,489.00
2022-12-27T19:06:55.018Z,489.00
2022-12-27T19:07:54.988Z,491.00
2022-12-27T19:08:53.899Z,493.00
2022-12-27T19:09:54.934Z,495.00
2022-12-27T19:10:54.797Z,497.00
2022-12-27T19:11:54.724Z,497.00
2022-12-27T19:12:54.764Z,499.00
2022-12-27T19:13:54.751Z,498.00
2022-12-27T19:14:54.755Z,497.00
2022-12-27T19:15:54.874Z,500.00
2022-12-27T19:16:54.821Z,499.00
2022-12-27T19:17:54.738Z,500.00
2022-12-27T19:18:54.755Z,502.00
2022-12-27T19:19:54.751Z,500.00
2022-12-27T19:20:54.763Z,500.00
2022-12-27T19:21:54.682Z,500.00
2022-12-27T19:22:54.709Z,499.00
2022-12-27T19:23:54.697Z,501.00
2022-12-27T19:24:54.715Z,502.00
2022-12-27T19:25:54.769Z,505.00
2022-12-27T19:26:54.752Z,507.00
2022-12-27T19:27:54.694Z,509.00
2022-12-27T19:28:54.818Z,509.00
2022-12-27T19:29:54.793Z,509.00
2022-12-27T19:30:54.774Z,507.00
2022-12-27T19:31:54.939Z,507.00
2022-12-27T19:32:54.773Z,508.00
2022-12-27T19:33:54.780Z,510.00
2022-12-27T19:34:54.830Z,512.00
2022-12-27T19:35:54.807Z,512.00
2022-12-27T19:36:54.798Z,513.00
2022-12-27T19:37:54.704Z,513.00
2022-12-27T19:38:54.839Z,514.00
2022-12-27T19:39:54.691Z,515.00
2022-12-27T19:41:01.278Z,515.00
2022-12-27T19:42:00.329Z,516.00
2022-12-27T19:42:54.726Z,511.00
2022-12-27T19:43:54.744Z,512.00
2022-12-27T19:44:54.758Z,509.00
2022-12-27T19:45:54.739Z,506.00
2022-12-27T19:46:54.794Z,504.00
2022-12-27T19:47:54.730Z,501.00
2022-12-27T19:49:31.742Z,500.00
2022-12-27T19:49:54.735Z,497.00
2022-12-27T19:50:54.732Z,494.00
2022-12-27T19:51:54.775Z,492.00
2022-12-27T19:52:54.722Z,491.00
2022-12-27T19:53:57.998Z,491.00
2022-12-27T19:54:54.716Z,491.00
2022-12-27T19:55:54.723Z,490.00
2022-12-27T19:56:54.735Z,490.00
2022-12-27T19:57:54.765Z,492.00
2022-12-27T19:58:54.807Z,493.00
2022-12-27T19:59:55.011Z,494.00
2022-12-27T20:00:54.889Z,494.00
2022-12-27T20:01:55.058Z,496.00
2022-12-27T20:02:54.985Z,496.00
2022-12-27T20:03:54.859Z,500.00
2022-12-27T20:04:54.976Z,500.00
2022-12-27T20:06:13.838Z,499.00
2022-12-27T20:06:54.818Z,496.00
2022-12-27T20:07:54.825Z,496.00
2022-12-27T20:08:54.862Z,496.00
2022-12-27T20:09:54.988Z,499.00
2022-12-27T20:10:55.495Z,497.00
2022-12-27T20:11:54.903Z,495.00
2022-12-27T20:12:54.911Z,498.00
2022-12-27T20:13:54.877Z,496.00
2022-12-27T20:14:54.981Z,497.00
2022-12-27T20:15:55.019Z,497.00
2022-12-27T20:16:54.942Z,499.00
2022-12-27T20:17:54.930Z,502.00
2022-12-27T20:18:55.062Z,502.00
2022-12-27T20:19:55.915Z,503.00
2022-12-27T20:20:54.981Z,504.00
2022-12-27T20:21:54.963Z,504.00
2022-12-27T20:22:55.023Z,503.00
2022-12-27T20:23:55.010Z,504.00
2022-12-27T20:24:55.121Z,505.00
2022-12-27T20:25:55.022Z,503.00
2022-12-27T20:26:55.103Z,500.00
2022-12-27T20:27:55.176Z,497.00
2022-12-27T20:28:55.084Z,497.00
2022-12-27T20:29:55.089Z,497.00
2022-12-27T20:30:55.135Z,498.00
2022-12-27T20:31:55.276Z,496.00
2022-12-27T20:32:55.179Z,497.00
2022-12-27T20:33:55.089Z,495.00
2022-12-27T20:34:55.152Z,493.00
2022-12-27T20:35:55.153Z,491.00
2022-12-27T20:36:55.115Z,493.00
2022-12-27T20:37:55.221Z,498.00
2022-12-27T20:38:55.230Z,502.00
2022-12-27T20:39:55.203Z,504.00
2022-12-27T20:40:55.181Z,504.00
2022-12-27T20:41:55.187Z,503.00
2022-12-27T20:42:55.221Z,502.00
2022-12-27T20:43:55.239Z,502.00
2022-12-27T20:44:55.246Z,502.00
2022-12-27T20:45:55.286Z,504.00
2022-12-27T20:46:55.231Z,507.00
2022-12-27T20:47:55.349Z,507.00
2022-12-27T20:48:55.293Z,507.00
2022-12-27T20:49:55.469Z,507.00
2022-12-27T20:50:55.432Z,507.00
2022-12-27T20:51:55.346Z,507.00
2022-12-27T20:52:55.507Z,510.00
2022-12-27T20:53:55.491Z,509.00
2022-12-27T20:54:55.447Z,503.00
2022-12-27T20:55:55.526Z,499.00
2022-12-27T20:56:55.471Z,498.00
2022-12-27T20:57:55.662Z,497.00
2022-12-27T20:58:55.701Z,496.00
2022-12-27T20:59:55.460Z,494.00
2022-12-27T21:00:55.625Z,495.00
2022-12-27T21:01:57.382Z,494.00
2022-12-27T21:02:55.612Z,494.00
2022-12-27T21:03:55.542Z,495.00
2022-12-27T21:04:55.539Z,495.00
2022-12-27T21:05:55.615Z,495.00
2022-12-27T21:06:55.585Z,499.00
2022-12-27T21:07:55.628Z,495.00
2022-12-27T21:08:57.748Z,498.00
2022-12-27T21:09:55.651Z,502.00
2022-12-27T21:10:55.756Z,507.00
2022-12-27T21:11:55.701Z,510.00
2022-12-27T21:12:55.737Z,509.00
2022-12-27T21:13:55.920Z,513.00
2022-12-27T21:14:55.972Z,514.00
2022-12-27T21:15:55.855Z,514.00
2022-12-27T21:16:55.905Z,511.00
2022-12-27T21:17:55.851Z,512.00
2022-12-27T21:18:56.058Z,512.00
2022-12-27T21:19:55.972Z,514.00
2022-12-27T21:20:56.050Z,515.00
2022-12-27T21:21:55.967Z,513.00
2022-12-27T21:22:55.957Z,511.00
2022-12-27T21:23:56.038Z,511.00
2022-12-27T21:24:56.180Z,509.00
2022-12-27T21:25:56.185Z,510.00
2022-12-27T21:26:56.642Z,511.00
2022-12-27T21:27:56.109Z,511.00
2022-12-27T21:28:56.156Z,511.00
2022-12-27T21:29:56.114Z,510.00
2022-12-27T21:30:56.418Z,510.00
2022-12-27T21:31:56.331Z,513.00
2022-12-27T21:32:56.293Z,513.00
2022-12-27T21:33:56.360Z,511.00
2022-12-27T21:34:56.306Z,508.00
2022-12-27T21:35:56.417Z,507.00
2022-12-27T21:36:56.322Z,505.00
2022-12-27T21:37:56.348Z,506.00
2022-12-27T21:38:56.402Z,506.00
2022-12-27T21:39:56.425Z,506.00
2022-12-27T21:40:56.398Z,506.00
2022-12-27T21:41:56.798Z,508.00
2022-12-27T21:42:56.727Z,507.00
2022-12-27T21:43:56.760Z,508.00
2022-12-27T21:44:56.599Z,508.00
2022-12-27T21:45:56.672Z,508.00
2022-12-27T21:46:56.679Z,507.00
2022-12-27T21:47:56.682Z,506.00
2022-12-27T21:48:56.624Z,508.00
2022-12-27T21:49:56.718Z,506.00
2022-12-27T21:50:56.725Z,509.00
2022-12-27T21:51:56.717Z,507.00
2022-12-27T21:52:56.688Z,507.00
2022-12-27T21:53:56.814Z,508.00
2022-12-27T21:54:56.762Z,506.00
2022-12-27T21:55:56.852Z,504.00
2022-12-27T21:56:56.777Z,503.00
2022-12-27T21:57:56.810Z,508.00
2022-12-27T21:58:56.831Z,508.00
2022-12-27T21:59:57.033Z,510.00
2022-12-27T22:00:58.146Z,511.00
2022-12-27T22:01:57.090Z,507.00
2022-12-27T22:02:57.198Z,505.00
2022-12-27T22:03:57.171Z,506.00
2022-12-27T22:04:57.128Z,508.00
2022-12-27T22:05:57.075Z,508.00
2022-12-27T22:06:57.121Z,509.00
2022-12-27T22:07:57.497Z,509.00
2022-12-27T22:08:57.163Z,509.00
2022-12-27T22:09:57.167Z,507.00
2022-12-27T22:10:57.122Z,506.00
2022-12-27T22:11:57.225Z,505.00
2022-12-27T22:12:57.326Z,506.00
2022-12-27T22:13:57.219Z,508.00
2022-12-27T22:14:57.354Z,509.00
2022-12-27T22:15:57.272Z,516.00
2022-12-27T22:16:57.221Z,517.00
2022-12-27T22:17:57.330Z,519.00
2022-12-27T22:18:57.912Z,521.00
2022-12-27T22:19:57.304Z,522.00
2022-12-27T22:20:57.382Z,521.00
2022-12-27T22:21:57.439Z,520.00
2022-12-27T22:22:57.357Z,521.00
2022-12-27T22:23:57.347Z,518.00
2022-12-27T22:24:57.448Z,519.00
2022-12-27T22:25:57.562Z,522.00
2022-12-27T22:26:57.528Z,520.00
2022-12-27T22:27:57.478Z,524.00
2022-12-27T22:28:57.509Z,525.00
2022-12-27T22:29:57.568Z,527.00
2022-12-27T22:30:57.633Z,526.00
2022-12-27T22:31:57.534Z,523.00
2022-12-27T22:32:57.599Z,521.00
2022-12-27T22:33:57.534Z,517.00
2022-12-27T22:34:57.544Z,516.00
2022-12-27T22:35:57.646Z,517.00
2022-12-27T22:36:57.673Z,517.00
2022-12-27T22:37:57.694Z,516.00
2022-12-27T22:38:57.709Z,518.00
2022-12-27T22:39:57.752Z,517.00
2022-12-27T22:40:57.691Z,517.00
2022-12-27T22:41:57.741Z,513.00
2022-12-27T22:42:57.847Z,521.00
2022-12-27T22:43:58.025Z,521.00
2022-12-27T22:44:57.965Z,520.00
2022-12-27T22:45:57.972Z,523.00
2022-12-27T22:47:24.994Z,522.00
2022-12-27T22:47:57.850Z,523.00
2022-12-27T22:48:57.924Z,525.00
2022-12-27T22:49:57.984Z,527.00
2022-12-27T22:50:57.923Z,528.00
2022-12-27T22:51:57.944Z,530.00
2022-12-27T22:52:58.176Z,528.00
2022-12-27T22:53:57.993Z,527.00
2022-12-27T22:55:05.844Z,527.00
2022-12-27T22:55:58.007Z,525.00
2022-12-27T22:56:58.005Z,525.00
2022-12-27T22:57:58.039Z,522.00
2022-12-27T22:58:58.068Z,522.00
2022-12-27T22:59:58.304Z,524.00
2022-12-27T23:00:58.200Z,525.00
2022-12-27T23:01:58.445Z,524.00
2022-12-27T23:02:58.198Z,524.00
2022-12-27T23:03:58.222Z,524.00
2022-12-27T23:04:58.486Z,523.00
2022-12-27T23:05:58.254Z,524.00
2022-12-27T23:06:58.336Z,522.00
2022-12-27T23:08:05.748Z,521.00
2022-12-27T23:08:58.348Z,520.00
2022-12-27T23:09:58.337Z,519.00
2022-12-27T23:10:58.383Z,518.00
2022-12-27T23:11:58.434Z,518.00
2022-12-27T23:12:58.336Z,519.00
2022-12-27T23:13:58.392Z,521.00
2022-12-27T23:14:58.464Z,517.00
2022-12-27T23:15:58.709Z,516.00
2022-12-27T23:16:58.394Z,518.00
2022-12-27T23:17:58.522Z,519.00
2022-12-27T23:18:58.476Z,521.00
2022-12-27T23:19:58.421Z,522.00
2022-12-27T23:21:20.990Z,517.00
2022-12-27T23:21:58.464Z,514.00
2022-12-27T23:22:58.474Z,513.00
2022-12-27T23:23:58.517Z,512.00
2022-12-27T23:24:58.520Z,511.00
2022-12-27T23:25:58.526Z,511.00
2022-12-27T23:26:58.552Z,509.00
2022-12-27T23:27:58.558Z,510.00
2022-12-27T23:28:58.521Z,510.00
2022-12-27T23:29:58.531Z,510.00
2022-12-27T23:30:58.553Z,511.00
2022-12-27T23:31:58.658Z,511.00
2022-12-27T23:32:58.574Z,514.00
2022-12-27T23:33:58.578Z,514.00
2022-12-27T23:34:58.564Z,513.00
2022-12-27T23:35:58.596Z,511.00
2022-12-27T23:36:58.731Z,513.00
2022-12-27T23:37:58.630Z,515.00
2022-12-27T23:38:58.634Z,515.00
2022-12-27T23:39:58.647Z,514.00
2022-12-27T23:40:58.653Z,514.00
2022-12-27T23:41:58.775Z,517.00
2022-12-27T23:43:12.474Z,519.00
2022-12-27T23:43:58.955Z,519.00
2022-12-27T23:44:58.746Z,518.00
2022-12-27T23:45:58.753Z,516.00
2022-12-27T23:46:58.844Z,514.00
2022-12-27T23:47:58.797Z,515.00
2022-12-27T23:48:58.836Z,517.00
2022-12-27T23:49:58.918Z,517.00
2022-12-27T23:50:59.098Z,516.00
2022-12-27T23:51:59.115Z,515.00
2022-12-27T23:52:58.997Z,513.00
2022-12-27T23:53:59.206Z,514.00
2022-12-27T23:54:59.164Z,516.00
2022-12-27T23:55:59.435Z,517.00
2022-12-27T23:57:22.477Z,518.00
2022-12-27T23:58:00.033Z,518.00
2022-12-27T23:58:59.130Z,518.00
2022-12-27T23:59:59.204Z,517.00
